Gano, Texas
Current Conditions -  °F | °C
As of 3:33 PM on Saturday 22 Nov 2014 (Local Time) from KGRK Reporting Station
Thunderstorm Thunderstorm  
Wind Chill: 61°   Ceiling: 200
Heat Index: 61°   Visibility: 0.25mi
Dew Point: 61°   Wind: 9mph
Humidity: 100%   Direction: 120°ESE
Pressure: 29.83"   Gusts: NA
Location:  30.5951°N, 97.1399°W
Report Text: KGRK 222133Z AUTO 12008KT 1/4SM R15/3500FT +RA FG VCTS OVC002 16/16 A2983 RMK AO2 LTG DSNT NE-SW AND NW
Loading
Personal Weather Stations






























Interactive Weather Map New forecast layout! Learn more

10-Day Weather Forecast

Advertisements
Track Severe Weather on mobile